createdAt,value
2018-10-06T00:00:47.768Z,1009.17
2018-10-06T00:01:57.506Z,1009.17
2018-10-06T00:03:06.937Z,1009.17
2018-10-06T00:04:16.353Z,1009.18
2018-10-06T00:05:25.529Z,1009.14
2018-10-06T00:06:34.706Z,1009.13
2018-10-06T00:07:44.152Z,1009.14
2018-10-06T00:08:53.093Z,1009.13
2018-10-06T00:10:02.257Z,1009.12
2018-10-06T00:11:11.681Z,1009.13
2018-10-06T00:12:20.846Z,1009.1
2018-10-06T00:13:30.018Z,1009.1
2018-10-06T00:14:39.486Z,1009.1
2018-10-06T00:15:48.988Z,1009.09
2018-10-06T00:16:58.420Z,1009.04
2018-10-06T00:18:08.134Z,1009.06
2018-10-06T00:19:17.882Z,1009.07
2018-10-06T00:20:27.140Z,1008.99
2018-10-06T00:21:36.577Z,1008.99
2018-10-06T00:22:46.000Z,1008.96
2018-10-06T00:23:55.189Z,1008.98
2018-10-06T00:25:04.905Z,1008.99
2018-10-06T00:26:14.069Z,1008.97
2018-10-06T00:27:23.503Z,1008.98
2018-10-06T00:28:32.958Z,1008.96
2018-10-06T00:29:42.631Z,1008.94
2018-10-06T00:30:52.329Z,1008.92
2018-10-06T00:32:02.292Z,1008.89
2018-10-06T00:33:11.210Z,1008.9
2018-10-06T00:34:20.921Z,1008.88
2018-10-06T00:35:30.399Z,1008.9
2018-10-06T00:36:40.089Z,1008.89
2018-10-06T00:37:49.783Z,1008.94
2018-10-06T00:38:59.538Z,1008.91
2018-10-06T00:40:08.523Z,1008.92
2018-10-06T00:41:18.221Z,1008.9
2018-10-06T00:42:27.431Z,1008.89
2018-10-06T00:43:36.856Z,1008.91
2018-10-06T00:44:46.552Z,1008.88
2018-10-06T00:45:55.990Z,1008.87
2018-10-06T00:47:05.560Z,1008.86
2018-10-06T00:48:16.047Z,1008.87
2018-10-06T00:49:25.458Z,1008.86
2018-10-06T00:50:34.662Z,1008.86
2018-10-06T00:51:43.844Z,1008.83
2018-10-06T00:52:53.277Z,1008.83
2018-10-06T00:54:02.442Z,1008.78
2018-10-06T00:55:11.872Z,1008.81
2018-10-06T00:56:21.323Z,1008.78
2018-10-06T00:57:30.763Z,1008.75
2018-10-06T00:58:40.246Z,1008.75
2018-10-06T00:59:49.716Z,1008.74
2018-10-06T01:00:58.919Z,1008.72
2018-10-06T01:02:08.365Z,1008.73
2018-10-06T01:03:18.074Z,1008.7
2018-10-06T01:04:27.260Z,1008.7
2018-10-06T01:05:36.964Z,1008.69
2018-10-06T01:06:46.640Z,1008.68
2018-10-06T01:07:55.820Z,1008.65
2018-10-06T01:09:05.014Z,1008.6
2018-10-06T01:10:14.690Z,1008.6
2018-10-06T01:11:24.361Z,1008.6
2018-10-06T01:12:33.529Z,1008.54
2018-10-06T01:13:42.702Z,1008.57
2018-10-06T01:14:51.339Z,1008.54
2018-10-06T01:16:00.794Z,1008.55
2018-10-06T01:17:10.532Z,1008.56
2018-10-06T01:18:19.959Z,1008.5
2018-10-06T01:19:29.130Z,1008.51
2018-10-06T01:20:38.587Z,1008.44
2018-10-06T01:21:48.283Z,1008.41
2018-10-06T01:22:57.459Z,1008.41
2018-10-06T01:24:06.897Z,1008.39
2018-10-06T01:25:16.602Z,1008.36
2018-10-06T01:26:26.067Z,1008.34
2018-10-06T01:27:35.809Z,1008.27
2018-10-06T01:28:45.242Z,1008.27
2018-10-06T01:29:54.440Z,1008.24
2018-10-06T01:31:04.142Z,1008.22
2018-10-06T01:32:13.867Z,1008.26
2018-10-06T01:33:23.593Z,1008.29
2018-10-06T01:34:32.769Z,1008.28
2018-10-06T01:35:42.247Z,1008.29
2018-10-06T01:36:51.669Z,1008.31
2018-10-06T01:38:01.624Z,1008.27
2018-10-06T01:39:11.054Z,1008.21
2018-10-06T01:40:20.743Z,1008.22
2018-10-06T01:41:30.107Z,1008.23
2018-10-06T01:42:39.851Z,1008.22
2018-10-06T01:43:49.294Z,1008.23
2018-10-06T01:44:58.971Z,1008.24
2018-10-06T01:46:08.407Z,1008.18
2018-10-06T01:47:17.338Z,1008.17
2018-10-06T01:48:27.018Z,1008.16
2018-10-06T01:49:36.689Z,1008.14
2018-10-06T01:50:46.098Z,1008.13
2018-10-06T01:51:55.621Z,1008.12
2018-10-06T01:53:04.559Z,1008.19
2018-10-06T01:54:13.706Z,1008.16
2018-10-06T01:55:23.137Z,1008.18
2018-10-06T01:56:32.805Z,1008.17
2018-10-06T01:57:42.499Z,1008.19
2018-10-06T01:58:53.189Z,1008.17
2018-10-06T02:00:02.617Z,1008.18
2018-10-06T02:01:12.059Z,1008.21
2018-10-06T02:02:21.505Z,1008.2
2018-10-06T02:03:30.420Z,1008.18
2018-10-06T02:04:40.349Z,1008.19
2018-10-06T02:05:49.776Z,1008.17
2018-10-06T02:06:59.338Z,1008.2
2018-10-06T02:08:08.779Z,1008.19
2018-10-06T02:09:17.692Z,1008.2
2018-10-06T02:10:27.373Z,1008.18
2018-10-06T02:11:36.695Z,1008.21
2018-10-06T02:12:46.122Z,1008.23
2018-10-06T02:13:56.046Z,1008.19
2018-10-06T02:15:05.733Z,1008.17
2018-10-06T02:16:14.901Z,1008.16
2018-10-06T02:17:23.809Z,1008.14
2018-10-06T02:18:33.480Z,1008.1
2018-10-06T02:19:42.915Z,1008.1
2018-10-06T02:20:52.339Z,1008.1
2018-10-06T02:22:02.045Z,1008.07
2018-10-06T02:23:11.466Z,1008.06
2018-10-06T02:24:20.641Z,1008.02
2018-10-06T02:25:30.113Z,1007.95
2018-10-06T02:26:39.294Z,1007.94
2018-10-06T02:27:48.704Z,1007.92
2018-10-06T02:28:58.395Z,1007.92
2018-10-06T02:30:07.822Z,1007.91
2018-10-06T02:31:18.376Z,1007.9
2018-10-06T02:32:28.187Z,1007.91
2018-10-06T02:33:37.914Z,1007.9
2018-10-06T02:34:47.072Z,1007.85
2018-10-06T02:35:56.233Z,1007.83
2018-10-06T02:37:05.680Z,1007.82
2018-10-06T02:38:15.110Z,1007.76
2018-10-06T02:39:24.558Z,1007.77
2018-10-06T02:40:33.983Z,1007.79
2018-10-06T02:41:43.597Z,1007.8
2018-10-06T02:42:52.301Z,1007.77
2018-10-06T02:44:02.010Z,1007.75
2018-10-06T02:45:11.428Z,1007.76
2018-10-06T02:46:21.114Z,1007.74
2018-10-06T02:47:30.296Z,1007.77
2018-10-06T02:48:39.745Z,1007.77
2018-10-06T02:49:48.393Z,1007.73
2018-10-06T02:50:58.066Z,1007.78
2018-10-06T02:52:08.613Z,1007.79
2018-10-06T02:53:18.043Z,1007.78
2018-10-06T02:54:27.762Z,1007.8
2018-10-06T02:55:37.468Z,1007.8
2018-10-06T02:56:46.696Z,1007.75
2018-10-06T02:57:56.543Z,1007.72
2018-10-06T02:59:05.723Z,1007.72
2018-10-06T03:00:15.148Z,1007.7
2018-10-06T03:01:24.557Z,1007.69
2018-10-06T03:02:34.327Z,1007.67
2018-10-06T03:03:43.758Z,1007.66
2018-10-06T03:04:53.445Z,1007.62
2018-10-06T03:06:02.367Z,1007.61
2018-10-06T03:07:12.262Z,1007.64
2018-10-06T03:08:22.208Z,1007.61
2018-10-06T03:09:31.844Z,1007.62
2018-10-06T03:10:40.843Z,1007.62
2018-10-06T03:11:50.549Z,1007.59
2018-10-06T03:13:00.260Z,1007.56
2018-10-06T03:14:10.246Z,1007.51
2018-10-06T03:15:18.913Z,1007.54
2018-10-06T03:16:28.372Z,1007.55
2018-10-06T03:17:38.070Z,1007.51
2018-10-06T03:18:47.505Z,1007.5
2018-10-06T03:19:57.203Z,1007.51
2018-10-06T03:21:06.641Z,1007.51
2018-10-06T03:22:16.323Z,1007.53
2018-10-06T03:23:26.019Z,1007.5
2018-10-06T03:24:35.437Z,1007.46
2018-10-06T03:25:45.280Z,1007.43
2018-10-06T03:26:53.967Z,1007.42
2018-10-06T03:28:03.660Z,1007.37
2018-10-06T03:29:13.346Z,1007.35
2018-10-06T03:30:23.084Z,1007.31
2018-10-06T03:31:33.045Z,1007.28
2018-10-06T03:32:42.942Z,1007.28
2018-10-06T03:33:52.135Z,1007.24
2018-10-06T03:35:01.823Z,1007.23
2018-10-06T03:36:11.534Z,1007.19
2018-10-06T03:37:21.422Z,1007.24
2018-10-06T03:38:30.866Z,1007.19
2018-10-06T03:39:40.057Z,1007.19
2018-10-06T03:40:49.417Z,1007.18
2018-10-06T03:41:58.845Z,1007.17
2018-10-06T03:43:08.547Z,1007.16
2018-10-06T03:44:17.734Z,1007.15
2018-10-06T03:45:26.683Z,1007.15
2018-10-06T03:46:35.863Z,1007.13
2018-10-06T03:47:45.684Z,1007.13
2018-10-06T03:48:54.593Z,1007.11
2018-10-06T03:50:04.291Z,1007.1
2018-10-06T03:51:13.725Z,1007.04
2018-10-06T03:52:23.676Z,1007
2018-10-06T03:53:33.124Z,1007.02
2018-10-06T03:54:43.055Z,1007.01
2018-10-06T03:55:52.473Z,1007.03
2018-10-06T03:57:02.439Z,1006.99
2018-10-06T03:58:11.720Z,1006.98
2018-10-06T03:59:21.425Z,1006.98
2018-10-06T04:00:30.849Z,1006.95
2018-10-06T04:01:40.538Z,1006.99
2018-10-06T04:02:50.214Z,1007.01
2018-10-06T04:03:58.868Z,1006.98
2018-10-06T04:05:08.294Z,1006.97
2018-10-06T04:06:17.989Z,1006.95
2018-10-06T04:07:27.680Z,1006.93
2018-10-06T04:08:37.443Z,1006.9
2018-10-06T04:09:46.911Z,1006.94
2018-10-06T04:10:56.901Z,1006.89
2018-10-06T04:12:06.340Z,1006.88
2018-10-06T04:13:16.358Z,1006.88
2018-10-06T04:14:26.299Z,1006.88
2018-10-06T04:15:35.730Z,1006.87
2018-10-06T04:16:45.434Z,1006.84
2018-10-06T04:17:55.154Z,1006.83
2018-10-06T04:19:04.337Z,1006.83
2018-10-06T04:20:13.971Z,1006.84
2018-10-06T04:21:23.929Z,1006.83
2018-10-06T04:22:33.622Z,1006.79
2018-10-06T04:23:43.299Z,1006.79
2018-10-06T04:24:52.734Z,1006.79
2018-10-06T04:26:02.191Z,1006.77
2018-10-06T04:27:11.353Z,1006.76
2018-10-06T04:28:21.379Z,1006.76
2018-10-06T04:29:31.799Z,1006.76
2018-10-06T04:30:41.225Z,1006.74
2018-10-06T04:31:50.907Z,1006.7
2018-10-06T04:33:00.853Z,1006.69
2018-10-06T04:34:10.298Z,1006.65
2018-10-06T04:35:19.847Z,1006.65
2018-10-06T04:36:29.279Z,1006.67
2018-10-06T04:37:38.946Z,1006.64
2018-10-06T04:38:48.899Z,1006.66
2018-10-06T04:39:58.344Z,1006.65
2018-10-06T04:41:07.766Z,1006.64
2018-10-06T04:42:17.474Z,1006.65
2018-10-06T04:43:26.974Z,1006.61
2018-10-06T04:44:36.662Z,1006.59
2018-10-06T04:45:46.095Z,1006.61
2018-10-06T04:46:55.517Z,1006.57
2018-10-06T04:48:05.054Z,1006.62
2018-10-06T04:49:14.250Z,1006.57
2018-10-06T04:50:23.943Z,1006.62
2018-10-06T04:51:33.981Z,1006.58
2018-10-06T04:52:43.152Z,1006.53
2018-10-06T04:53:52.574Z,1006.53
2018-10-06T04:55:01.997Z,1006.51
2018-10-06T04:56:11.321Z,1006.51
2018-10-06T04:57:21.013Z,1006.49
2018-10-06T04:58:30.425Z,1006.49
2018-10-06T04:59:39.597Z,1006.48
2018-10-06T05:00:49.520Z,1006.52
2018-10-06T05:01:58.697Z,1006.5
2018-10-06T05:03:07.675Z,1006.56
2018-10-06T05:04:17.322Z,1006.55
2018-10-06T05:05:26.906Z,1006.55
2018-10-06T05:06:36.595Z,1006.54
2018-10-06T05:07:45.785Z,1006.5
2018-10-06T05:08:55.474Z,1006.53
2018-10-06T05:10:04.648Z,1006.49
2018-10-06T05:11:14.364Z,1006.51
2018-10-06T05:12:24.046Z,1006.51
2018-10-06T05:13:34.150Z,1006.47
2018-10-06T05:14:44.521Z,1006.45
2018-10-06T05:15:54.271Z,1006.48
2018-10-06T05:17:03.957Z,1006.44
2018-10-06T05:18:12.872Z,1006.45
2018-10-06T05:19:22.919Z,1006.43
2018-10-06T05:20:31.832Z,1006.43
2018-10-06T05:21:41.251Z,1006.42
2018-10-06T05:22:50.957Z,1006.43
2018-10-06T05:24:00.400Z,1006.39
2018-10-06T05:25:09.076Z,1006.37
2018-10-06T05:26:18.008Z,1006.37
2018-10-06T05:27:27.440Z,1006.37
2018-10-06T05:28:36.872Z,1006.41
2018-10-06T05:29:46.048Z,1006.4
2018-10-06T05:30:55.456Z,1006.35
2018-10-06T05:32:04.908Z,1006.38
2018-10-06T05:33:14.093Z,1006.39
2018-10-06T05:34:23.543Z,1006.39
2018-10-06T05:35:33.485Z,1006.4
2018-10-06T05:36:42.632Z,1006.39
2018-10-06T05:37:51.824Z,1006.37
2018-10-06T05:39:01.253Z,1006.37
2018-10-06T05:40:10.682Z,1006.32
2018-10-06T05:41:20.137Z,1006.35
2018-10-06T05:42:29.821Z,1006.35
2018-10-06T05:43:39.509Z,1006.32
2018-10-06T05:44:49.205Z,1006.32
2018-10-06T05:45:58.885Z,1006.3
2018-10-06T05:47:08.998Z,1006.31
2018-10-06T05:48:17.962Z,1006.32
2018-10-06T05:49:27.189Z,1006.3
2018-10-06T05:50:36.867Z,1006.31
2018-10-06T05:51:46.740Z,1006.29
2018-10-06T05:52:55.904Z,1006.31
2018-10-06T05:54:05.066Z,1006.27
2018-10-06T05:55:14.744Z,1006.24
2018-10-06T05:56:24.289Z,1006.34
2018-10-06T05:57:33.986Z,1006.26
2018-10-06T05:58:43.684Z,1006.29
2018-10-06T05:59:53.453Z,1006.26
2018-10-06T06:01:03.154Z,1006.28
2018-10-06T06:02:12.849Z,1006.3
2018-10-06T06:03:21.777Z,1006.31
2018-10-06T06:04:31.715Z,1006.35
2018-10-06T06:05:41.167Z,1006.35
2018-10-06T06:06:49.818Z,1006.31
2018-10-06T06:07:59.531Z,1006.36
2018-10-06T06:09:09.106Z,1006.37
2018-10-06T06:10:18.571Z,1006.38
2018-10-06T06:11:28.014Z,1006.33
2018-10-06T06:12:37.452Z,1006.37
2018-10-06T06:13:46.902Z,1006.37
2018-10-06T06:14:56.876Z,1006.32
2018-10-06T06:16:06.858Z,1006.31
2018-10-06T06:17:16.825Z,1006.36
2018-10-06T06:18:26.261Z,1006.32
2018-10-06T06:19:35.046Z,1006.35
2018-10-06T06:20:44.803Z,1006.32
2018-10-06T06:21:54.507Z,1006.35
2018-10-06T06:23:04.202Z,1006.33
2018-10-06T06:24:13.872Z,1006.29
2018-10-06T06:25:23.327Z,1006.3
2018-10-06T06:26:33.346Z,1006.28
2018-10-06T06:27:42.558Z,1006.29
2018-10-06T06:28:52.575Z,1006.29
2018-10-06T06:30:02.095Z,1006.31
2018-10-06T06:31:11.903Z,1006.33
2018-10-06T06:32:21.578Z,1006.32
2018-10-06T06:33:31.111Z,1006.34
2018-10-06T06:34:40.779Z,1006.32
2018-10-06T06:35:50.516Z,1006.34
2018-10-06T06:37:00.589Z,1006.33
2018-10-06T06:38:10.574Z,1006.36
2018-10-06T06:39:20.108Z,1006.37
2018-10-06T06:40:29.541Z,1006.32
2018-10-06T06:41:39.249Z,1006.33
2018-10-06T06:42:48.681Z,1006.32
2018-10-06T06:43:57.886Z,1006.35
2018-10-06T06:45:08.099Z,1006.32
2018-10-06T06:46:18.167Z,1006.3
2018-10-06T06:47:27.893Z,1006.31
2018-10-06T06:48:37.643Z,1006.28
2018-10-06T06:49:46.815Z,1006.29
2018-10-06T06:50:56.256Z,1006.24
2018-10-06T06:52:05.468Z,1006.28
2018-10-06T06:53:14.631Z,1006.27
2018-10-06T06:54:23.820Z,1006.29
2018-10-06T06:55:32.722Z,1006.27
2018-10-06T06:56:42.143Z,1006.29
2018-10-06T06:57:51.319Z,1006.29
2018-10-06T06:59:01.285Z,1006.3
2018-10-06T07:00:10.486Z,1006.31
2018-10-06T07:01:20.167Z,1006.28
2018-10-06T07:02:29.620Z,1006.31
2018-10-06T07:03:39.335Z,1006.26
2018-10-06T07:04:48.771Z,1006.22
2018-10-06T07:05:58.263Z,1006.26
2018-10-06T07:07:07.435Z,1006.2
2018-10-06T07:08:17.101Z,1006.18
2018-10-06T07:09:27.055Z,1006.16
2018-10-06T07:10:37.004Z,1006.17
2018-10-06T07:11:46.443Z,1006.13
2018-10-06T07:12:56.120Z,1006.13
2018-10-06T07:14:05.545Z,1006.17
2018-10-06T07:15:15.159Z,1006.16
2018-10-06T07:16:24.836Z,1006.16
2018-10-06T07:17:34.981Z,1006.15
2018-10-06T07:18:44.922Z,1006.19
2018-10-06T07:19:54.637Z,1006.18
2018-10-06T07:21:03.846Z,1006.18
2018-10-06T07:22:13.782Z,1006.16
2018-10-06T07:23:23.222Z,1006.18
2018-10-06T07:24:32.903Z,1006.16
2018-10-06T07:25:42.426Z,1006.16
2018-10-06T07:26:52.125Z,1006.14
2018-10-06T07:28:01.030Z,1006.11
2018-10-06T07:29:10.533Z,1006.15
2018-10-06T07:30:20.236Z,1006.07
2018-10-06T07:31:30.177Z,1006.09
2018-10-06T07:32:40.172Z,1006.04
2018-10-06T07:33:49.862Z,1006.04
2018-10-06T07:34:59.042Z,1006.09
2018-10-06T07:36:08.474Z,1006.02
2018-10-06T07:37:17.926Z,1006.03
2018-10-06T07:38:27.371Z,1006.03
2018-10-06T07:39:37.490Z,1006.02
2018-10-06T07:40:46.716Z,1005.98
2018-10-06T07:41:55.705Z,1006
2018-10-06T07:43:04.878Z,1006.02
2018-10-06T07:44:14.325Z,1005.98
2018-10-06T07:45:23.753Z,1005.95
2018-10-06T07:46:33.186Z,1006
2018-10-06T07:47:42.099Z,1006
2018-10-06T07:48:51.508Z,1005.97
2018-10-06T07:50:01.246Z,1005.96
2018-10-06T07:51:10.923Z,1005.99
2018-10-06T07:52:20.349Z,1005.98
2018-10-06T07:53:30.045Z,1005.99
2018-10-06T07:54:39.743Z,1006
2018-10-06T07:55:49.433Z,1006.03
2018-10-06T07:56:59.691Z,1006.04
2018-10-06T07:58:09.121Z,1006.03
2018-10-06T07:59:19.669Z,1006.04
2018-10-06T08:00:29.417Z,1006.01
2018-10-06T08:01:38.944Z,1006
2018-10-06T08:02:48.203Z,1005.95
2018-10-06T08:03:57.958Z,1005.94
2018-10-06T08:05:07.391Z,1005.92
2018-10-06T08:06:17.086Z,1005.88
2018-10-06T08:07:26.755Z,1005.85
2018-10-06T08:08:35.927Z,1005.84
2018-10-06T08:09:45.176Z,1005.83
2018-10-06T08:10:54.881Z,1005.81
2018-10-06T08:12:04.063Z,1005.82
2018-10-06T08:13:14.017Z,1005.79
2018-10-06T08:14:23.455Z,1005.76
2018-10-06T08:15:32.717Z,1005.8
2018-10-06T08:16:41.951Z,1005.8
2018-10-06T08:17:50.893Z,1005.83
2018-10-06T08:19:00.644Z,1005.83
2018-10-06T08:20:10.362Z,1005.83
2018-10-06T08:21:20.099Z,1005.79
2018-10-06T08:22:29.601Z,1005.83
2018-10-06T08:23:38.793Z,1005.84
2018-10-06T08:24:48.482Z,1005.82
2018-10-06T08:25:58.466Z,1005.76
2018-10-06T08:27:07.924Z,1005.76
2018-10-06T08:28:17.420Z,1005.74
2018-10-06T08:29:27.115Z,1005.73
2018-10-06T08:30:36.901Z,1005.75
2018-10-06T08:31:46.891Z,1005.77
2018-10-06T08:32:56.354Z,1005.75
2018-10-06T08:34:05.843Z,1005.73
2018-10-06T08:35:15.009Z,1005.78
2018-10-06T08:36:23.914Z,1005.73
2018-10-06T08:37:33.356Z,1005.78
2018-10-06T08:38:42.794Z,1005.74
2018-10-06T08:39:52.269Z,1005.7
2018-10-06T08:41:01.430Z,1005.67
2018-10-06T08:42:10.863Z,1005.7
2018-10-06T08:43:20.313Z,1005.69
2018-10-06T08:44:30.006Z,1005.69
2018-10-06T08:45:39.693Z,1005.67
2018-10-06T08:46:49.181Z,1005.68
2018-10-06T08:47:58.106Z,1005.65
2018-10-06T08:49:07.817Z,1005.63
2018-10-06T08:50:17.941Z,1005.62
2018-10-06T08:51:27.984Z,1005.62
2018-10-06T08:52:37.415Z,1005.64
2018-10-06T08:53:46.915Z,1005.64
2018-10-06T08:54:56.235Z,1005.74
2018-10-06T08:56:05.746Z,1005.74
2018-10-06T08:57:16.590Z,1005.68
2018-10-06T08:58:26.540Z,1005.7
2018-10-06T08:59:36.681Z,1005.69
2018-10-06T09:00:46.129Z,1005.66
2018-10-06T09:01:55.636Z,1005.62
2018-10-06T09:03:04.843Z,1005.63
2018-10-06T09:04:14.060Z,1005.64
2018-10-06T09:05:24.216Z,1005.61
2018-10-06T09:06:32.874Z,1005.59
2018-10-06T09:07:42.042Z,1005.58
2018-10-06T09:08:51.696Z,1005.54
2018-10-06T09:10:01.398Z,1005.54
2018-10-06T09:11:10.888Z,1005.55
2018-10-06T09:12:20.600Z,1005.57
2018-10-06T09:13:30.532Z,1005.55
2018-10-06T09:14:39.965Z,1005.54
2018-10-06T09:15:49.355Z,1005.56
2018-10-06T09:16:58.788Z,1005.56
2018-10-06T09:18:08.246Z,1005.53
2018-10-06T09:19:17.964Z,1005.53
2018-10-06T09:20:27.387Z,1005.52
2018-10-06T09:21:36.567Z,1005.5
2018-10-06T09:22:46.280Z,1005.51
2018-10-06T09:23:55.474Z,1005.47
2018-10-06T09:25:05.116Z,1005.49
2018-10-06T09:26:15.071Z,1005.47
2018-10-06T09:27:24.272Z,1005.39
2018-10-06T09:28:34.076Z,1005.42
2018-10-06T09:29:43.512Z,1005.42
2018-10-06T09:30:53.244Z,1005.38
2018-10-06T09:32:02.756Z,1005.36
2018-10-06T09:33:12.254Z,1005.35
2018-10-06T09:34:21.438Z,1005.35
2018-10-06T09:35:30.876Z,1005.38
2018-10-06T09:36:40.844Z,1005.32
2018-10-06T09:37:50.283Z,1005.26
2018-10-06T09:39:00.067Z,1005.29
2018-10-06T09:40:09.789Z,1005.29
2018-10-06T09:41:18.953Z,1005.28
2018-10-06T09:42:28.262Z,1005.29
2018-10-06T09:43:39.244Z,1005.26
2018-10-06T09:44:48.439Z,1005.23
2018-10-06T09:45:58.070Z,1005.19
2018-10-06T09:47:07.803Z,1005.2
2018-10-06T09:48:17.447Z,1005.18
2018-10-06T09:49:26.531Z,1005.19
2018-10-06T09:50:36.023Z,1005.2
2018-10-06T09:51:45.443Z,1005.18
2018-10-06T09:52:54.891Z,1005.15
2018-10-06T09:54:04.058Z,1005.19
2018-10-06T09:55:14.026Z,1005.18
2018-10-06T09:56:23.450Z,1005.16
2018-10-06T09:57:33.319Z,1005.17
2018-10-06T09:58:42.387Z,1005.11
2018-10-06T09:59:51.588Z,1005.07
2018-10-06T10:01:01.320Z,1005.08
2018-10-06T10:02:11.266Z,1005.05
2018-10-06T10:03:20.632Z,1005.07
2018-10-06T10:04:30.068Z,1005.04
2018-10-06T10:05:39.246Z,1005.04
2018-10-06T10:06:49.277Z,1005.04
2018-10-06T10:07:58.441Z,1004.99
2018-10-06T10:09:08.132Z,1005
2018-10-06T10:10:17.831Z,1004.94
2018-10-06T10:11:26.531Z,1004.9
2018-10-06T10:12:36.058Z,1004.92
2018-10-06T10:13:45.899Z,1004.92
2018-10-06T10:14:54.810Z,1004.84
2018-10-06T10:16:04.559Z,1004.86
2018-10-06T10:17:13.919Z,1004.83
2018-10-06T10:18:24.014Z,1004.8
2018-10-06T10:19:33.868Z,1004.8
2018-10-06T10:20:43.564Z,1004.73
2018-10-06T10:21:53.179Z,1004.7
2018-10-06T10:23:03.455Z,1004.72
2018-10-06T10:24:12.736Z,1004.74
2018-10-06T10:25:21.634Z,1004.7
2018-10-06T10:26:31.056Z,1004.73
2018-10-06T10:27:40.514Z,1004.69
2018-10-06T10:28:49.974Z,1004.72
2018-10-06T10:29:59.768Z,1004.65
2018-10-06T10:31:09.004Z,1004.69
2018-10-06T10:32:18.170Z,1004.68
2018-10-06T10:33:27.602Z,1004.66
2018-10-06T10:34:36.598Z,1004.66
2018-10-06T10:35:46.105Z,1004.67
2018-10-06T10:36:55.549Z,1004.65
2018-10-06T10:38:04.802Z,1004.64
2018-10-06T10:39:14.329Z,1004.62
2018-10-06T10:40:24.041Z,1004.62
2018-10-06T10:41:33.313Z,1004.62
2018-10-06T10:42:43.060Z,1004.6
2018-10-06T10:43:52.546Z,1004.6
2018-10-06T10:45:01.802Z,1004.59
2018-10-06T10:46:11.105Z,1004.58
2018-10-06T10:47:20.550Z,1004.54
2018-10-06T10:48:30.296Z,1004.51
2018-10-06T10:49:40.020Z,1004.47
2018-10-06T10:50:49.830Z,1004.46
2018-10-06T10:51:59.730Z,1004.46
2018-10-06T10:53:09.172Z,1004.42
2018-10-06T10:54:18.383Z,1004.44
2018-10-06T10:55:27.980Z,1004.4
2018-10-06T10:56:38.371Z,1004.33
2018-10-06T10:57:47.896Z,1004.32
2018-10-06T10:58:57.262Z,1004.34
2018-10-06T11:00:07.012Z,1004.33
2018-10-06T11:01:17.057Z,1004.36
2018-10-06T11:02:26.456Z,1004.37
2018-10-06T11:03:36.168Z,1004.35
2018-10-06T11:04:46.321Z,1004.34
2018-10-06T11:05:55.735Z,1004.38
2018-10-06T11:07:05.418Z,1004.34
2018-10-06T11:08:14.842Z,1004.33
2018-10-06T11:09:24.531Z,1004.35
2018-10-06T11:10:33.696Z,1004.33
2018-10-06T11:11:43.399Z,1004.29
2018-10-06T11:12:52.579Z,1004.28
2018-10-06T11:14:02.005Z,1004.25
2018-10-06T11:15:11.695Z,1004.21
2018-10-06T11:16:21.175Z,1004.2
2018-10-06T11:17:30.915Z,1004.16
2018-10-06T11:18:40.598Z,1004.17
2018-10-06T11:19:49.773Z,1004.16
2018-10-06T11:20:59.718Z,1004.09
2018-10-06T11:22:08.907Z,1004.16
2018-10-06T11:23:18.614Z,1004.11
2018-10-06T11:24:27.781Z,1004.12
2018-10-06T11:25:37.218Z,1004.09
2018-10-06T11:26:47.418Z,1004.04
2018-10-06T11:27:56.906Z,1004.05
2018-10-06T11:29:06.880Z,1004
2018-10-06T11:30:16.321Z,1003.97
2018-10-06T11:31:26.023Z,1003.98
2018-10-06T11:32:35.753Z,1003.95
2018-10-06T11:33:45.202Z,1003.9
2018-10-06T11:34:54.629Z,1003.93
2018-10-06T11:36:04.062Z,1003.88
2018-10-06T11:37:14.134Z,1003.92
2018-10-06T11:38:24.076Z,1003.83
2018-10-06T11:39:33.245Z,1003.77
2018-10-06T11:40:42.666Z,1003.75
2018-10-06T11:41:51.332Z,1003.72
2018-10-06T11:43:00.784Z,1003.76
2018-10-06T11:44:10.243Z,1003.71
2018-10-06T11:45:19.650Z,1003.71
2018-10-06T11:46:29.093Z,1003.71
2018-10-06T11:47:38.271Z,1003.69
2018-10-06T11:48:48.224Z,1003.64
2018-10-06T11:49:57.964Z,1003.57
2018-10-06T11:51:08.667Z,1003.58
2018-10-06T11:52:18.364Z,1003.55
2018-10-06T11:53:28.063Z,1003.52
2018-10-06T11:54:37.393Z,1003.48
2018-10-06T11:55:46.304Z,1003.47
2018-10-06T11:56:55.733Z,1003.5
2018-10-06T11:58:04.936Z,1003.5
2018-10-06T11:59:14.618Z,1003.5
2018-10-06T12:00:24.190Z,1003.51
2018-10-06T12:01:33.752Z,1003.51
2018-10-06T12:02:43.190Z,1003.47
2018-10-06T12:03:52.378Z,1003.48
2018-10-06T12:05:02.339Z,1003.45
2018-10-06T12:06:12.100Z,1003.42
2018-10-06T12:07:21.580Z,1003.45
2018-10-06T12:08:31.044Z,1003.4
2018-10-06T12:09:40.478Z,1003.39
2018-10-06T12:10:49.389Z,1003.39
2018-10-06T12:11:59.443Z,1003.38
2018-10-06T12:13:08.952Z,1003.39
2018-10-06T12:14:18.380Z,1003.38
2018-10-06T12:15:28.116Z,1003.4
2018-10-06T12:16:37.798Z,1003.35
2018-10-06T12:17:47.238Z,1003.32
2018-10-06T12:18:56.405Z,1003.29
2018-10-06T12:20:05.848Z,1003.31
2018-10-06T12:21:15.523Z,1003.29
2018-10-06T12:22:25.198Z,1003.33
2018-10-06T12:23:34.882Z,1003.24
2018-10-06T12:24:44.604Z,1003.32
2018-10-06T12:25:54.301Z,1003.29
2018-10-06T12:27:04.185Z,1003.32
2018-10-06T12:28:13.364Z,1003.31
2018-10-06T12:29:22.536Z,1003.28
2018-10-06T12:30:31.700Z,1003.27
2018-10-06T12:31:41.839Z,1003.25
2018-10-06T12:32:51.277Z,1003.25
2018-10-06T12:34:01.231Z,1003.24
2018-10-06T12:35:10.773Z,1003.21
2018-10-06T12:36:21.253Z,1003.21
2018-10-06T12:37:30.705Z,1003.21
2018-10-06T12:38:40.484Z,1003.19
2018-10-06T12:39:49.403Z,1003.17
2018-10-06T12:40:59.088Z,1003.19
2018-10-06T12:42:08.058Z,1003.17
2018-10-06T12:43:18.435Z,1003.14
2018-10-06T12:44:27.888Z,1003.13
2018-10-06T12:45:37.057Z,1003.13
2018-10-06T12:46:46.740Z,1003.14
2018-10-06T12:47:56.230Z,1003.13
2018-10-06T12:49:05.926Z,1003.07
2018-10-06T12:50:15.623Z,1003.08
2018-10-06T12:51:24.805Z,1003.06
2018-10-06T12:52:34.460Z,1003.12
2018-10-06T12:53:43.900Z,1003.09
2018-10-06T12:54:53.071Z,1003.05
2018-10-06T12:56:01.985Z,1003.07
2018-10-06T12:57:11.657Z,1003.04
2018-10-06T12:58:21.082Z,1003
2018-10-06T12:59:30.530Z,1003.06
2018-10-06T13:00:40.271Z,1003.04
2018-10-06T13:01:49.968Z,1003.02
2018-10-06T13:02:59.658Z,1002.99
2018-10-06T13:04:08.825Z,1002.98
2018-10-06T13:05:18.016Z,1002.97
2018-10-06T13:06:27.714Z,1002.93
2018-10-06T13:07:37.136Z,1002.87
2018-10-06T13:08:46.551Z,1002.85
2018-10-06T13:09:55.715Z,1002.89
2018-10-06T13:11:05.407Z,1002.86
2018-10-06T13:12:15.112Z,1002.86
2018-10-06T13:13:24.789Z,1002.83
2018-10-06T13:14:34.495Z,1002.89
2018-10-06T13:15:44.181Z,1002.8
2018-10-06T13:16:53.611Z,1002.81
2018-10-06T13:18:03.297Z,1002.86
2018-10-06T13:19:12.718Z,1002.88
2018-10-06T13:20:22.154Z,1002.85
2018-10-06T13:21:31.852Z,1002.84
2018-10-06T13:22:41.539Z,1002.8
2018-10-06T13:23:50.711Z,1002.83
2018-10-06T13:25:00.395Z,1002.77
2018-10-06T13:26:09.828Z,1002.83
2018-10-06T13:27:19.510Z,1002.77
2018-10-06T13:28:29.187Z,1002.81
2018-10-06T13:29:38.092Z,1002.81
2018-10-06T13:30:47.790Z,1002.71
2018-10-06T13:31:56.695Z,1002.81
2018-10-06T13:33:06.906Z,1002.77
2018-10-06T13:34:16.100Z,1002.8
2018-10-06T13:35:25.271Z,1002.8
2018-10-06T13:36:34.703Z,1002.76
2018-10-06T13:37:43.875Z,1002.76
2018-10-06T13:38:53.037Z,1002.77
2018-10-06T13:40:02.198Z,1002.74
2018-10-06T13:41:11.122Z,1002.71
2018-10-06T13:42:20.814Z,1002.71
2018-10-06T13:43:30.514Z,1002.77
2018-10-06T13:44:39.949Z,1002.72
2018-10-06T13:45:49.416Z,1002.72
2018-10-06T13:46:58.897Z,1002.71
2018-10-06T13:48:08.323Z,1002.76
2018-10-06T13:49:17.488Z,1002.73
2018-10-06T13:50:26.913Z,1002.75
2018-10-06T13:51:36.881Z,1002.74
2018-10-06T13:52:46.309Z,1002.73
2018-10-06T13:53:55.751Z,1002.71
2018-10-06T13:55:05.182Z,1002.72
2018-10-06T13:56:14.620Z,1002.7
2018-10-06T13:57:24.407Z,1002.68
2018-10-06T13:58:33.930Z,1002.6
2018-10-06T13:59:43.963Z,1002.64
2018-10-06T14:00:53.644Z,1002.63
2018-10-06T14:02:02.821Z,1002.62
2018-10-06T14:03:12.793Z,1002.56
2018-10-06T14:04:22.487Z,1002.61